createdAt,value
2022-11-09T00:01:38.024Z,99801.13
2022-11-09T00:06:39.511Z,99811.06
2022-11-09T00:11:40.887Z,99805.84
2022-11-09T00:16:42.347Z,99814.38
2022-11-09T00:21:43.694Z,99817.50
2022-11-09T00:26:45.070Z,99834.13
2022-11-09T00:31:46.464Z,99834.50
2022-11-09T00:36:47.840Z,99818.28
2022-11-09T00:41:49.189Z,99819.50
2022-11-09T00:46:50.948Z,99806.66
2022-11-09T00:51:52.395Z,99812.03
2022-11-09T00:56:53.789Z,99814.69
2022-11-09T01:01:55.186Z,99834.41
2022-11-09T01:06:56.691Z,99861.81
2022-11-09T01:11:58.157Z,99851.84
2022-11-09T01:16:59.518Z,99843.31
2022-11-09T01:22:00.862Z,99810.75
2022-11-09T01:27:02.218Z,99829.69
2022-11-09T01:32:03.896Z,99840.47
2022-11-09T01:37:05.478Z,99841.72
2022-11-09T01:42:06.834Z,99861.63
2022-11-09T01:47:23.230Z,99861.84
2022-11-09T01:52:32.081Z,99860.19
2022-11-09T01:57:38.385Z,99867.69
2022-11-09T02:02:55.283Z,99868.31
2022-11-09T02:07:58.289Z,99850.28
2022-11-09T02:13:00.454Z,99851.34
2022-11-09T02:18:03.787Z,99852.16
2022-11-09T02:23:05.818Z,99839.53
2022-11-09T02:28:07.976Z,99835.38
2022-11-09T02:33:09.354Z,99837.69
2022-11-09T02:38:12.678Z,99831.44
2022-11-09T02:43:15.459Z,99813.56
2022-11-09T02:48:17.018Z,99778.84
2022-11-09T02:53:18.682Z,99778.84
2022-11-09T02:58:20.253Z,99787.97
2022-11-09T03:03:24.411Z,99774.28
2022-11-09T03:08:25.821Z,99787.16
2022-11-09T03:13:27.219Z,99784.47
2022-11-09T03:18:28.545Z,99756.81
2022-11-09T03:23:30.155Z,99767.59
2022-11-09T03:28:31.522Z,99758.47
2022-11-09T03:33:33.005Z,99785.91
2022-11-09T03:38:34.628Z,99793.41
2022-11-09T03:43:35.992Z,99812.91
2022-11-09T03:48:37.386Z,99841.81
2022-11-09T03:53:38.738Z,99840.56
2022-11-09T03:58:40.118Z,99841.38
2022-11-09T04:03:41.569Z,99833.66
2022-11-09T04:08:47.006Z,99836.56
2022-11-09T04:13:51.417Z,99838.59
2022-11-09T04:18:52.818Z,99855.88
2022-11-09T04:23:54.152Z,99846.06
2022-11-09T04:28:55.507Z,99846.06
2022-11-09T04:33:56.895Z,99842.34
2022-11-09T04:38:58.266Z,99847.31
2022-11-09T04:43:59.617Z,99858.56
2022-11-09T04:49:01.134Z,99847.09
2022-11-09T04:54:02.496Z,99839.56
2022-11-09T04:59:03.857Z,99835.63
2022-11-09T05:04:05.249Z,99839.59
2022-11-09T05:09:07.622Z,99823.97
2022-11-09T05:14:09.003Z,99817.94
2022-11-09T05:19:10.329Z,99809.41
2022-11-09T05:24:11.847Z,99800.88
2022-11-09T05:29:13.542Z,99795.06
2022-11-09T05:34:15.135Z,99794.91
2022-11-09T05:39:16.485Z,99786.13
2022-11-09T05:44:17.864Z,99794.47
2022-11-09T05:49:19.203Z,99801.28
2022-11-09T05:54:20.533Z,99803.13
2022-11-09T05:59:21.937Z,99790.22
2022-11-09T06:04:23.294Z,99785.88
2022-11-09T06:09:24.704Z,99786.25
2022-11-09T06:14:26.099Z,99797.31
2022-11-09T06:19:27.469Z,99807.28
2022-11-09T06:24:29.032Z,99813.94
2022-11-09T06:29:30.387Z,99820.59
2022-11-09T06:34:31.789Z,99826.84
2022-11-09T06:39:33.127Z,99848.28
2022-11-09T06:44:34.470Z,99858.28
2022-11-09T06:49:35.885Z,99857.47
2022-11-09T06:54:37.232Z,99862.06
2022-11-09T06:59:38.584Z,99867.88
2022-11-09T07:04:39.931Z,99862.06
2022-11-09T07:09:41.286Z,99862.28
2022-11-09T07:14:42.659Z,99871.63
2022-11-09T07:19:43.988Z,99893.88
2022-11-09T07:24:45.453Z,99902.22
2022-11-09T07:29:46.810Z,99906.56
2022-11-09T07:34:48.227Z,99911.53
2022-11-09T07:39:49.594Z,99901.94
2022-11-09T07:44:51.297Z,99907.78
2022-11-09T07:49:52.665Z,99914.19
2022-11-09T07:54:54.029Z,99914.63
2022-11-09T07:59:55.454Z,99914.84
2022-11-09T08:04:56.857Z,99933.16
2022-11-09T08:09:58.461Z,99936.69
2022-11-09T08:14:59.799Z,99931.69
2022-11-09T08:20:01.177Z,99933.94
2022-11-09T08:25:02.596Z,99922.72
2022-11-09T08:30:04.299Z,99915.22
2022-11-09T08:35:06.190Z,99924.16
2022-11-09T08:40:08.926Z,99929.34
2022-11-09T08:45:11.303Z,99939.47
2022-11-09T08:50:14.498Z,99935.75
2022-11-09T08:55:15.962Z,99935.28
2022-11-09T09:00:17.664Z,99934.84
2022-11-09T09:05:19.855Z,99917.97
2022-11-09T09:10:21.306Z,99927.38
2022-11-09T09:15:23.149Z,99919.41
2022-11-09T09:20:24.524Z,99932.13
2022-11-09T09:25:26.875Z,99918.53
2022-11-09T09:30:28.324Z,99928.06
2022-11-09T09:35:29.754Z,99937.63
2022-11-09T09:40:43.549Z,99950.41
2022-11-09T09:45:51.704Z,99963.94
2022-11-09T09:50:57.364Z,99954.31
2022-11-09T09:56:17.042Z,99953.25
2022-11-09T10:01:23.925Z,99966.13
2022-11-09T10:06:46.299Z,99964.44
2022-11-09T10:12:14.469Z,99965.19
2022-11-09T10:17:45.478Z,99964.13
2022-11-09T10:23:20.931Z,99958.25
2022-11-09T10:28:27.197Z,99955.44
2022-11-09T10:33:28.953Z,99951.91
2022-11-09T10:38:40.085Z,99953.66
2022-11-09T10:43:41.450Z,99950.03
2022-11-09T10:48:42.888Z,99950.56
2022-11-09T10:53:44.315Z,99952.75
2022-11-09T10:58:49.083Z,99947.44
2022-11-09T11:03:53.171Z,99944.28
2022-11-09T11:08:57.338Z,99942.09
2022-11-09T11:14:28.983Z,99932.59
2022-11-09T11:19:41.346Z,99942.00
2022-11-09T11:24:42.713Z,99937.50
2022-11-09T11:29:51.952Z,99939.97
2022-11-09T11:35:00.392Z,99947.75
2022-11-09T11:40:15.872Z,99938.72
2022-11-09T11:45:42.058Z,99937.03
2022-11-09T11:51:15.984Z,99939.38
2022-11-09T11:56:17.296Z,99946.09
2022-11-09T12:01:53.852Z,99935.63
2022-11-09T12:07:12.864Z,99934.22
2022-11-09T12:12:40.870Z,99920.59
2022-11-09T12:18:15.309Z,99924.25
2022-11-09T12:23:22.813Z,99921.72
2022-11-09T12:28:55.878Z,99927.16
2022-11-09T12:34:03.154Z,99923.50
2022-11-09T12:39:37.603Z,99929.88
2022-11-09T12:45:12.184Z,99930.47
2022-11-09T12:50:18.183Z,99927.41
2022-11-09T12:55:36.333Z,99930.88
2022-11-09T13:00:44.260Z,99927.78
2022-11-09T13:05:47.529Z,99924.59
2022-11-09T13:11:08.472Z,99937.88
2022-11-09T13:16:19.088Z,99936.47
2022-11-09T13:21:23.214Z,99947.34
2022-11-09T13:26:30.734Z,99939.06
2022-11-09T13:32:09.688Z,99944.53
2022-11-09T13:37:41.802Z,99945.84
2022-11-09T13:42:43.271Z,99942.53
2022-11-09T13:47:51.956Z,99948.44
2022-11-09T13:52:55.546Z,99944.75
2022-11-09T13:58:04.723Z,99949.34
2022-11-09T14:03:26.478Z,99948.13
2022-11-09T14:08:30.638Z,99957.84
2022-11-09T14:14:03.280Z,99954.25
2022-11-09T14:19:23.018Z,99950.41
2022-11-09T14:24:34.519Z,99959.50
2022-11-09T14:29:37.916Z,99953.94
2022-11-09T14:34:39.258Z,99962.91
2022-11-09T14:39:40.947Z,99967.28
2022-11-09T14:44:43.996Z,99969.25
2022-11-09T14:49:46.090Z,99980.75
2022-11-09T14:54:49.347Z,99981.69
2022-11-09T14:59:50.939Z,99988.59
2022-11-09T15:04:54.399Z,100002.91
2022-11-09T15:10:01.684Z,100001.53
2022-11-09T15:15:06.664Z,100007.22
2022-11-09T15:20:07.964Z,100018.47
2022-11-09T15:25:20.834Z,99995.84
2022-11-09T15:30:31.681Z,100002.97
2022-11-09T15:35:33.052Z,100001.69
2022-11-09T15:40:34.385Z,100011.41
2022-11-09T15:45:35.749Z,100008.63
2022-11-09T15:50:37.333Z,100003.47
2022-11-09T15:55:38.758Z,100010.00
2022-11-09T16:00:40.247Z,100018.59
2022-11-09T16:05:41.649Z,100033.56
2022-11-09T16:10:44.369Z,100034.84
2022-11-09T16:15:45.758Z,100036.34
2022-11-09T16:20:47.377Z,100042.84
2022-11-09T16:25:48.800Z,100050.56
2022-11-09T16:30:50.210Z,100058.94
2022-11-09T16:35:53.681Z,100071.06
2022-11-09T16:40:55.095Z,100077.81
2022-11-09T16:45:57.155Z,100074.66
2022-11-09T16:50:58.705Z,100098.66
2022-11-09T16:56:00.113Z,100101.97
2022-11-09T17:01:11.314Z,100111.78
2022-11-09T17:06:14.099Z,100117.81
2022-11-09T17:11:15.571Z,100128.84
2022-11-09T17:16:20.208Z,100134.72
2022-11-09T17:21:23.213Z,100143.47
2022-11-09T17:26:25.781Z,100148.69
2022-11-09T17:31:27.178Z,100147.84
2022-11-09T17:36:56.827Z,100162.66
2022-11-09T17:41:50.408Z,100168.50
2022-11-09T17:46:52.055Z,100173.94
2022-11-09T17:51:53.553Z,100181.19
2022-11-09T17:56:55.129Z,100187.69
2022-11-09T18:01:56.521Z,100190.19
2022-11-09T18:06:58.033Z,100185.16
2022-11-09T18:11:59.466Z,100195.38
2022-11-09T18:17:01.566Z,100182.69
2022-11-09T18:22:04.877Z,100195.78
2022-11-09T18:27:08.007Z,100200.59
2022-11-09T18:32:09.448Z,100207.03
2022-11-09T18:37:10.852Z,100214.94
2022-11-09T18:42:12.394Z,100215.97
2022-11-09T18:47:15.049Z,100216.41
2022-11-09T18:52:16.437Z,100235.13
2022-11-09T18:57:20.021Z,100234.31
2022-11-09T19:02:21.641Z,100248.88
2022-11-09T19:07:23.007Z,100247.41
2022-11-09T19:12:25.055Z,100254.53
2022-11-09T19:17:26.463Z,100278.03
2022-11-09T19:22:29.099Z,100281.34
2022-11-09T19:27:30.468Z,100271.56
2022-11-09T19:32:31.909Z,100286.34
2022-11-09T19:37:33.288Z,100293.63
2022-11-09T19:42:34.653Z,100302.75
2022-11-09T19:47:36.010Z,100302.97
2022-11-09T19:52:38.765Z,100305.03
2022-11-09T19:57:40.134Z,100313.78
2022-11-09T20:02:41.488Z,100326.88
2022-11-09T20:07:43.470Z,100335.34
2022-11-09T20:12:50.542Z,100345.34
2022-11-09T20:17:52.257Z,100343.69
2022-11-09T20:22:53.605Z,100361.50
2022-11-09T20:27:56.097Z,100361.09
2022-11-09T20:32:57.477Z,100371.47
2022-11-09T20:37:58.980Z,100373.50
2022-11-09T20:43:00.316Z,100386.38
2022-11-09T20:48:14.792Z,100385.53
2022-11-09T20:53:23.009Z,100384.47
2022-11-09T20:58:26.729Z,100393.66
2022-11-09T21:03:28.149Z,100391.13
2022-11-09T21:08:29.579Z,100407.34
2022-11-09T21:13:31.645Z,100405.09
2022-11-09T21:18:33.384Z,100410.50
2022-11-09T21:23:54.784Z,100425.63
2022-11-09T21:29:14.812Z,100437.28
2022-11-09T21:34:16.220Z,100439.94
2022-11-09T21:39:17.585Z,100451.97
2022-11-09T21:44:19.038Z,100458.38
2022-11-09T21:49:20.381Z,100454.97
2022-11-09T21:54:22.640Z,100469.44
2022-11-09T21:59:24.462Z,100473.31
2022-11-09T22:04:25.853Z,100490.41
2022-11-09T22:09:32.414Z,100490.41
2022-11-09T22:14:55.713Z,100489.72
2022-11-09T22:20:15.717Z,100512.09
2022-11-09T22:25:17.181Z,100520.97
2022-11-09T22:30:18.680Z,100534.19
2022-11-09T22:35:20.086Z,100529.09
2022-11-09T22:40:21.815Z,100542.72
2022-11-09T22:45:23.155Z,100550.91
2022-11-09T22:50:24.546Z,100548.84
2022-11-09T22:55:25.926Z,100562.63
2022-11-09T23:00:27.322Z,100570.81
2022-11-09T23:05:28.950Z,100567.28
2022-11-09T23:10:30.397Z,100568.19
2022-11-09T23:15:31.846Z,100581.97
2022-11-09T23:20:35.700Z,100583.72
2022-11-09T23:25:56.417Z,100584.09
2022-11-09T23:31:07.192Z,100581.13
2022-11-09T23:36:09.217Z,100580.81
2022-11-09T23:41:12.479Z,100594.00
2022-11-09T23:46:14.580Z,100598.94
2022-11-09T23:51:18.387Z,100602.53
2022-11-09T23:56:21.150Z,100617.88
